createdAt,value
2023-02-15T00:01:09.594Z,27.53
2023-02-15T00:03:38.310Z,28.57
2023-02-15T00:06:07.404Z,32.83
2023-02-15T00:08:35.765Z,29.70
2023-02-15T00:11:08.411Z,27.83
2023-02-15T00:13:39.420Z,27.10
2023-02-15T00:16:11.320Z,26.83
2023-02-15T00:18:40.038Z,26.80
2023-02-15T00:21:10.222Z,26.63
2023-02-15T00:23:38.754Z,25.30
2023-02-15T00:26:08.757Z,24.90
2023-02-15T00:28:36.992Z,25.27
2023-02-15T00:31:07.507Z,24.73
2023-02-15T00:33:39.391Z,23.20
2023-02-15T00:36:09.928Z,24.53
2023-02-15T00:38:38.661Z,25.07
2023-02-15T00:41:08.635Z,25.60
2023-02-15T00:43:38.047Z,25.50
2023-02-15T00:46:07.230Z,24.67
2023-02-15T00:48:35.553Z,24.60
2023-02-15T00:51:05.271Z,25.07
2023-02-15T00:53:33.642Z,25.37
2023-02-15T00:56:02.472Z,24.07
2023-02-15T00:58:31.091Z,22.87
2023-02-15T01:01:05.495Z,24.93
2023-02-15T01:03:34.427Z,22.90
2023-02-15T01:06:06.135Z,23.37
2023-02-15T01:08:34.458Z,21.47
2023-02-15T01:11:06.368Z,21.03
2023-02-15T01:13:34.860Z,22.23
2023-02-15T01:16:03.932Z,19.60
2023-02-15T01:18:32.420Z,20.70
2023-02-15T01:21:00.775Z,20.70
2023-02-15T01:23:30.414Z,19.83
2023-02-15T01:26:03.327Z,18.93
2023-02-15T01:28:31.908Z,19.43
2023-02-15T01:31:00.438Z,19.30
2023-02-15T01:33:28.788Z,20.30
2023-02-15T01:36:00.921Z,23.27
2023-02-15T01:38:30.636Z,21.63
2023-02-15T01:41:19.742Z,21.13
2023-02-15T01:43:50.271Z,21.47
2023-02-15T01:46:24.715Z,20.97
2023-02-15T01:48:57.024Z,19.60
2023-02-15T01:51:29.738Z,20.70
2023-02-15T01:54:04.584Z,20.23
2023-02-15T01:56:36.820Z,21.80
2023-02-15T01:59:10.237Z,19.90
2023-02-15T02:01:40.033Z,20.60
2023-02-15T02:04:15.483Z,21.43
2023-02-15T02:06:43.769Z,19.63
2023-02-15T02:09:13.720Z,19.53
2023-02-15T02:11:46.595Z,19.77
2023-02-15T02:14:15.150Z,20.53
2023-02-15T02:16:52.399Z,20.50
2023-02-15T02:19:46.306Z,23.63
2023-02-15T02:22:42.442Z,22.90
2023-02-15T02:25:50.613Z,21.27
2023-02-15T02:28:39.451Z,22.00
2023-02-15T02:31:33.520Z,21.43
2023-02-15T02:34:12.677Z,20.17
2023-02-15T02:36:47.127Z,20.07
2023-02-15T02:39:25.692Z,20.07
2023-02-15T02:42:04.197Z,19.47
2023-02-15T02:44:43.976Z,22.07
2023-02-15T02:47:15.686Z,20.20
2023-02-15T02:49:45.861Z,19.40
2023-02-15T02:52:37.222Z,21.10
2023-02-15T02:55:08.708Z,19.93
2023-02-15T02:57:43.118Z,19.57
2023-02-15T03:00:13.298Z,20.73
2023-02-15T03:02:46.898Z,20.00
2023-02-15T03:05:21.036Z,19.20
2023-02-15T03:07:52.643Z,20.03
2023-02-15T03:10:24.049Z,18.90
2023-02-15T03:12:53.994Z,20.60
2023-02-15T03:15:25.236Z,20.93
2023-02-15T03:17:57.737Z,19.97
2023-02-15T03:20:32.576Z,21.40
2023-02-15T03:23:05.825Z,23.03
2023-02-15T03:25:38.298Z,20.60
2023-02-15T03:28:10.738Z,21.87
2023-02-15T03:30:41.484Z,19.77
2023-02-15T03:33:11.021Z,20.03
2023-02-15T03:35:47.662Z,21.13
2023-02-15T03:38:22.488Z,21.13
2023-02-15T03:41:09.662Z,19.43
2023-02-15T03:43:50.153Z,19.63
2023-02-15T03:46:23.637Z,22.47
2023-02-15T03:48:55.669Z,20.57
2023-02-15T03:51:35.937Z,21.23
2023-02-15T03:54:06.959Z,22.10
2023-02-15T03:56:37.594Z,20.83
2023-02-15T03:59:24.076Z,21.00
2023-02-15T04:02:06.989Z,21.33
2023-02-15T04:04:37.876Z,21.27
2023-02-15T04:07:09.327Z,20.07
2023-02-15T04:09:55.494Z,20.37
2023-02-15T04:12:23.757Z,20.47
2023-02-15T04:15:09.374Z,21.40
2023-02-15T04:17:38.270Z,21.07
2023-02-15T04:20:25.389Z,21.40
2023-02-15T04:23:12.488Z,24.07
2023-02-15T04:25:40.829Z,21.27
2023-02-15T04:28:09.432Z,20.73
2023-02-15T04:30:37.748Z,24.90
2023-02-15T04:33:06.175Z,22.97
2023-02-15T04:35:34.576Z,20.87
2023-02-15T04:38:04.271Z,21.27
2023-02-15T04:40:32.562Z,21.03
2023-02-15T04:43:00.735Z,21.30
2023-02-15T04:45:29.069Z,20.67
2023-02-15T04:47:57.522Z,21.70
2023-02-15T04:50:26.013Z,21.63
2023-02-15T04:52:54.258Z,20.77
2023-02-15T04:55:23.823Z,20.57
2023-02-15T04:57:52.128Z,20.73
2023-02-15T05:00:20.872Z,21.23
2023-02-15T05:02:48.975Z,21.13
2023-02-15T05:05:17.271Z,20.90
2023-02-15T05:07:45.442Z,20.77
2023-02-15T05:10:13.918Z,21.77
2023-02-15T05:12:43.444Z,20.63
2023-02-15T05:15:12.110Z,22.90
2023-02-15T05:17:40.429Z,22.33
2023-02-15T05:20:09.425Z,24.37
2023-02-15T05:22:37.606Z,23.77
2023-02-15T05:25:23.224Z,22.57
2023-02-15T05:28:10.360Z,22.87
2023-02-15T05:30:40.802Z,22.27
2023-02-15T05:33:09.504Z,21.77
2023-02-15T05:35:37.762Z,22.50
2023-02-15T05:38:05.985Z,23.93
2023-02-15T05:40:34.330Z,24.10
2023-02-15T05:43:03.940Z,25.23
2023-02-15T05:45:32.374Z,21.40
2023-02-15T05:48:00.532Z,20.13
2023-02-15T05:50:29.084Z,19.87
2023-02-15T05:53:00.153Z,22.13
2023-02-15T05:55:28.465Z,21.13
2023-02-15T05:57:56.624Z,22.90
2023-02-15T06:00:26.329Z,21.10
2023-02-15T06:02:54.483Z,20.40
2023-02-15T06:05:22.674Z,19.67
2023-02-15T06:07:50.824Z,20.70
2023-02-15T06:10:19.141Z,26.80
2023-02-15T06:12:47.277Z,32.33
2023-02-15T06:15:15.964Z,22.00
2023-02-15T06:17:45.861Z,21.23
2023-02-15T06:20:14.853Z,19.53
2023-02-15T06:22:42.989Z,20.17
2023-02-15T06:25:12.256Z,25.40
2023-02-15T06:27:43.686Z,21.13
2023-02-15T06:30:13.889Z,23.03
2023-02-15T06:32:42.380Z,19.33
2023-02-15T06:35:12.547Z,19.93
2023-02-15T06:37:41.169Z,21.00
2023-02-15T06:40:10.650Z,21.80
2023-02-15T06:42:38.869Z,19.47
2023-02-15T06:45:08.464Z,23.90
2023-02-15T06:47:36.780Z,24.47
2023-02-15T06:50:05.518Z,24.40
2023-02-15T06:52:35.140Z,20.33
2023-02-15T06:55:03.721Z,20.00
2023-02-15T06:57:33.314Z,37.23
2023-02-15T07:00:02.180Z,21.70
2023-02-15T07:02:30.732Z,25.53
2023-02-15T07:04:59.081Z,21.93
2023-02-15T07:07:27.530Z,22.17
2023-02-15T07:09:57.062Z,25.87
2023-02-15T07:12:44.851Z,20.90
2023-02-15T07:15:14.656Z,18.83
2023-02-15T07:17:42.964Z,23.00
2023-02-15T07:20:13.669Z,20.20
2023-02-15T07:22:41.783Z,20.27
2023-02-15T07:25:12.988Z,20.07
2023-02-15T07:27:41.792Z,18.00
2023-02-15T07:30:12.105Z,19.00
2023-02-15T07:33:00.630Z,20.20
2023-02-15T07:35:29.332Z,21.03
2023-02-15T07:37:57.761Z,22.27
2023-02-15T07:40:27.278Z,20.20
2023-02-15T07:42:55.896Z,19.77
2023-02-15T07:45:24.599Z,18.07
2023-02-15T07:47:52.807Z,19.77
2023-02-15T07:50:21.000Z,21.50
2023-02-15T07:52:49.271Z,20.90
2023-02-15T07:55:17.510Z,20.90
2023-02-15T07:57:49.525Z,20.33
2023-02-15T08:00:21.147Z,20.40
2023-02-15T08:03:10.501Z,19.43
2023-02-15T08:05:39.523Z,18.27
2023-02-15T08:08:08.100Z,18.27
2023-02-15T08:11:03.514Z,19.33
2023-02-15T08:13:33.150Z,18.20
2023-02-15T08:16:01.962Z,18.13
2023-02-15T08:18:30.473Z,20.13
2023-02-15T08:20:58.890Z,22.67
2023-02-15T08:23:27.342Z,24.07
2023-02-15T08:25:55.620Z,23.50
2023-02-15T08:28:23.775Z,21.67
2023-02-15T08:30:53.734Z,21.73
2023-02-15T08:33:22.254Z,25.67
2023-02-15T08:35:50.653Z,24.03
2023-02-15T08:38:19.128Z,20.87
2023-02-15T08:40:47.415Z,21.60
2023-02-15T08:43:15.750Z,22.13
2023-02-15T08:45:44.177Z,20.53
2023-02-15T08:48:13.932Z,19.07
2023-02-15T08:50:42.269Z,19.87
2023-02-15T08:53:10.577Z,20.80
2023-02-15T08:55:40.840Z,19.97
2023-02-15T08:58:09.169Z,19.47
2023-02-15T09:00:37.467Z,17.17
2023-02-15T09:03:06.253Z,16.63
2023-02-15T09:05:35.925Z,16.80
2023-02-15T09:08:04.309Z,16.63
2023-02-15T09:10:32.426Z,15.83
2023-02-15T09:13:00.600Z,16.37
2023-02-15T09:15:28.828Z,17.37
2023-02-15T09:17:57.092Z,18.00
2023-02-15T09:20:25.490Z,17.70
2023-02-15T09:22:57.655Z,17.83
2023-02-15T09:25:29.341Z,19.03
2023-02-15T09:27:58.399Z,19.23
2023-02-15T09:30:27.446Z,18.70
2023-02-15T09:32:56.614Z,19.20
2023-02-15T09:35:25.463Z,16.70
2023-02-15T09:37:55.618Z,18.53
2023-02-15T09:40:25.630Z,18.17
2023-02-15T09:43:19.189Z,16.97
2023-02-15T09:46:10.617Z,18.83
2023-02-15T09:48:43.780Z,18.03
2023-02-15T09:51:33.534Z,17.33
2023-02-15T09:54:18.759Z,20.37
2023-02-15T09:56:52.407Z,18.37
2023-02-15T09:59:30.372Z,18.10
2023-02-15T10:02:10.251Z,19.50
2023-02-15T10:04:53.156Z,19.00
2023-02-15T10:07:38.206Z,19.97
2023-02-15T10:10:19.789Z,20.37
2023-02-15T10:13:10.748Z,22.30
2023-02-15T10:15:53.079Z,18.27
2023-02-15T10:18:34.288Z,18.93
2023-02-15T10:21:11.109Z,19.07
2023-02-15T10:23:55.578Z,19.60
2023-02-15T10:26:30.542Z,19.00
2023-02-15T10:29:04.785Z,20.47
2023-02-15T10:31:40.019Z,19.70
2023-02-15T10:34:19.712Z,20.70
2023-02-15T10:37:25.157Z,19.40
2023-02-15T10:40:03.711Z,17.80
2023-02-15T10:42:52.088Z,18.70
2023-02-15T10:45:28.594Z,19.37
2023-02-15T10:48:24.257Z,21.30
2023-02-15T10:50:54.974Z,19.83
2023-02-15T10:53:47.088Z,18.17
2023-02-15T10:56:22.322Z,18.43
2023-02-15T10:59:08.358Z,18.20
2023-02-15T11:01:43.120Z,16.73
2023-02-15T11:04:41.036Z,19.10
2023-02-15T11:07:18.736Z,17.50
2023-02-15T11:09:50.777Z,18.07
2023-02-15T11:12:23.178Z,17.57
2023-02-15T11:15:00.659Z,16.93
2023-02-15T11:17:35.669Z,16.67
2023-02-15T11:20:11.797Z,18.10
2023-02-15T11:22:41.188Z,18.10
2023-02-15T11:25:20.419Z,17.57
2023-02-15T11:27:51.420Z,18.40
2023-02-15T11:30:27.267Z,19.47
2023-02-15T11:32:58.477Z,19.97
2023-02-15T11:35:31.589Z,20.13
2023-02-15T11:38:08.230Z,19.50
2023-02-15T11:40:43.361Z,19.17
2023-02-15T11:43:18.912Z,19.20
2023-02-15T11:45:48.674Z,19.87
2023-02-15T11:48:18.885Z,18.97
2023-02-15T11:50:47.570Z,20.33
2023-02-15T11:53:18.200Z,19.40
2023-02-15T11:55:47.937Z,20.60
2023-02-15T11:58:29.161Z,20.70
2023-02-15T12:01:04.992Z,22.58
2023-02-15T12:03:45.816Z,22.00
2023-02-15T12:06:27.351Z,20.80
2023-02-15T12:09:03.314Z,21.43
2023-02-15T12:11:39.159Z,20.97
2023-02-15T12:14:09.323Z,21.50
2023-02-15T12:16:46.770Z,21.10
2023-02-15T12:19:33.299Z,22.52
2023-02-15T12:22:04.329Z,21.63
2023-02-15T12:24:36.920Z,20.10
2023-02-15T12:27:08.037Z,21.00
2023-02-15T12:29:44.119Z,22.33
2023-02-15T12:32:20.974Z,20.63
2023-02-15T12:34:51.345Z,22.77
2023-02-15T12:37:23.608Z,28.83
2023-02-15T12:39:57.944Z,23.30
2023-02-15T12:42:27.743Z,27.27
2023-02-15T12:44:59.471Z,23.10
2023-02-15T12:47:31.089Z,21.20
2023-02-15T12:50:18.811Z,22.03
2023-02-15T12:52:49.651Z,22.53
2023-02-15T12:55:24.970Z,22.53
2023-02-15T12:58:11.032Z,22.60
2023-02-15T13:00:39.632Z,23.57
2023-02-15T13:03:20.252Z,22.30
2023-02-15T13:05:52.606Z,21.80
2023-02-15T13:08:23.009Z,21.23
2023-02-15T13:10:58.447Z,22.97
2023-02-15T13:13:29.864Z,23.00
2023-02-15T13:16:03.000Z,22.47
2023-02-15T13:18:36.367Z,34.73
2023-02-15T13:21:13.073Z,21.93
2023-02-15T13:23:46.817Z,22.33
2023-02-15T13:26:19.818Z,21.87
2023-02-15T13:28:50.587Z,21.33
2023-02-15T13:31:21.307Z,22.73
2023-02-15T13:33:54.514Z,21.60
2023-02-15T13:36:29.307Z,22.87
2023-02-15T13:39:09.357Z,22.07
2023-02-15T13:41:50.987Z,21.83
2023-02-15T13:44:31.606Z,23.50
2023-02-15T13:47:12.616Z,23.20
2023-02-15T13:49:53.043Z,22.40
2023-02-15T13:52:23.748Z,22.13
2023-02-15T13:55:08.733Z,23.43
2023-02-15T13:57:51.252Z,21.97
2023-02-15T14:00:28.196Z,21.80
2023-02-15T14:03:14.246Z,40.93
2023-02-15T14:05:59.301Z,23.60
2023-02-15T14:08:40.475Z,35.03
2023-02-15T14:11:18.020Z,22.17
2023-02-15T14:14:12.983Z,21.93
2023-02-15T14:17:04.550Z,22.40
2023-02-15T14:19:42.313Z,22.30
2023-02-15T14:22:22.797Z,33.40
2023-02-15T14:25:04.588Z,53.63
2023-02-15T14:27:45.546Z,27.20
2023-02-15T14:30:20.462Z,23.27
2023-02-15T14:32:51.626Z,32.73
2023-02-15T14:35:22.612Z,37.33
2023-02-15T14:37:57.458Z,26.83
2023-02-15T14:40:53.201Z,24.20
2023-02-15T14:43:32.519Z,24.53
2023-02-15T14:46:09.839Z,21.83
2023-02-15T14:48:43.632Z,22.70
2023-02-15T14:51:12.541Z,23.60
2023-02-15T14:53:43.201Z,23.13
2023-02-15T14:56:23.942Z,24.27
2023-02-15T14:59:02.467Z,24.50
2023-02-15T15:01:33.524Z,24.13
2023-02-15T15:04:06.531Z,30.87
2023-02-15T15:06:37.338Z,24.63
2023-02-15T15:09:14.399Z,24.97
2023-02-15T15:11:46.595Z,23.73
2023-02-15T15:14:39.777Z,24.17
2023-02-15T15:17:11.736Z,24.93
2023-02-15T15:20:32.802Z,24.43
2023-02-15T15:23:41.575Z,24.53
2023-02-15T15:26:26.560Z,25.53
2023-02-15T15:29:02.499Z,28.50
2023-02-15T15:31:41.499Z,23.60
2023-02-15T15:34:35.128Z,24.47
2023-02-15T15:37:27.744Z,22.93
2023-02-15T15:40:24.751Z,24.33
2023-02-15T15:43:14.053Z,23.43
2023-02-15T15:46:09.856Z,24.97
2023-02-15T15:48:40.007Z,25.67
2023-02-15T15:51:14.798Z,24.73
2023-02-15T15:53:49.425Z,25.17
2023-02-15T15:56:20.764Z,24.53
2023-02-15T15:58:54.456Z,25.60
2023-02-15T16:01:29.507Z,26.33
2023-02-15T16:03:59.929Z,27.27
2023-02-15T16:06:33.159Z,26.00
2023-02-15T16:09:18.391Z,25.93
2023-02-15T16:11:48.766Z,27.97
2023-02-15T16:14:24.157Z,26.80
2023-02-15T16:16:55.883Z,27.70
2023-02-15T16:19:28.599Z,27.57
2023-02-15T16:21:59.832Z,28.33
2023-02-15T16:24:44.516Z,28.20
2023-02-15T16:27:22.900Z,28.17
2023-02-15T16:29:53.255Z,29.00
2023-02-15T16:32:24.226Z,29.60
2023-02-15T16:34:57.664Z,30.77
2023-02-15T16:37:28.348Z,31.37
2023-02-15T16:39:57.451Z,30.23
2023-02-15T16:42:26.544Z,30.73
2023-02-15T16:44:59.165Z,31.10
2023-02-15T16:47:30.608Z,32.30
2023-02-15T16:50:03.107Z,33.43
2023-02-15T16:52:31.847Z,33.43
2023-02-15T16:55:02.298Z,33.17
2023-02-15T16:57:34.842Z,35.57
2023-02-15T17:00:07.456Z,36.23
2023-02-15T17:02:54.998Z,37.67
2023-02-15T17:05:24.655Z,40.13
2023-02-15T17:08:06.791Z,38.80
2023-02-15T17:10:37.746Z,36.10
2023-02-15T17:13:12.942Z,39.17
2023-02-15T17:15:44.341Z,39.10
2023-02-15T17:18:18.894Z,39.47
2023-02-15T17:20:48.789Z,42.10
2023-02-15T17:23:30.865Z,42.80
2023-02-15T17:26:00.112Z,39.77
2023-02-15T17:28:32.273Z,40.43
2023-02-15T17:31:08.133Z,38.03
2023-02-15T17:33:40.480Z,38.67
2023-02-15T17:36:14.779Z,37.77
2023-02-15T17:39:03.390Z,38.60
2023-02-15T17:41:33.731Z,40.20
2023-02-15T17:44:03.781Z,38.90
2023-02-15T17:46:36.588Z,37.50
2023-02-15T17:49:05.529Z,37.80
2023-02-15T17:51:36.560Z,43.08
2023-02-15T17:54:33.812Z,43.57
2023-02-15T17:57:05.862Z,45.23
2023-02-15T17:59:34.176Z,42.23
2023-02-15T18:02:30.667Z,41.80
2023-02-15T18:05:17.641Z,39.77
2023-02-15T18:08:04.843Z,55.47
2023-02-15T18:10:50.851Z,48.37
2023-02-15T18:13:19.073Z,42.10
2023-02-15T18:15:47.639Z,40.67
2023-02-15T18:18:17.414Z,45.07
2023-02-15T18:20:45.652Z,44.23
2023-02-15T18:23:16.051Z,44.83
2023-02-15T18:25:44.288Z,45.87
2023-02-15T18:28:14.286Z,44.60
2023-02-15T18:30:43.922Z,39.23
2023-02-15T18:33:27.073Z,38.97
2023-02-15T18:35:55.671Z,48.87
2023-02-15T18:38:24.048Z,40.47
2023-02-15T18:40:52.438Z,41.10
2023-02-15T18:43:21.052Z,56.80
2023-02-15T18:45:50.608Z,49.70
2023-02-15T18:48:21.469Z,46.80
2023-02-15T18:50:50.403Z,48.83
2023-02-15T18:53:21.437Z,61.63
2023-02-15T18:55:50.086Z,49.57
2023-02-15T18:58:20.671Z,46.10
2023-02-15T19:00:50.114Z,46.43
2023-02-15T19:03:20.905Z,38.73
2023-02-15T19:05:49.626Z,47.90
2023-02-15T19:08:22.040Z,43.73
2023-02-15T19:10:50.503Z,43.57
2023-02-15T19:13:19.059Z,47.17
2023-02-15T19:15:48.146Z,46.23
2023-02-15T19:18:16.999Z,48.00
2023-02-15T19:20:48.593Z,49.13
2023-02-15T19:23:22.074Z,52.00
2023-02-15T19:25:51.593Z,55.33
2023-02-15T19:28:25.065Z,53.40
2023-02-15T19:30:53.611Z,61.60
2023-02-15T19:33:23.739Z,64.30
2023-02-15T19:35:57.660Z,54.53
2023-02-15T19:38:29.656Z,54.97
2023-02-15T19:41:04.194Z,67.80
2023-02-15T19:43:32.611Z,52.10
2023-02-15T19:46:02.615Z,52.77
2023-02-15T19:48:31.541Z,50.27
2023-02-15T19:51:02.526Z,52.57
2023-02-15T19:53:31.828Z,48.80
2023-02-15T19:56:01.268Z,58.97
2023-02-15T19:58:30.276Z,49.10
2023-02-15T20:00:59.226Z,47.27
2023-02-15T20:03:29.702Z,53.43
2023-02-15T20:05:59.041Z,48.67
2023-02-15T20:08:30.837Z,44.27
2023-02-15T20:11:00.225Z,53.03
2023-02-15T20:13:31.286Z,43.03
2023-02-15T20:16:01.642Z,49.60
2023-02-15T20:18:30.416Z,42.57
2023-02-15T20:20:59.502Z,45.87
2023-02-15T20:23:32.242Z,43.77
2023-02-15T20:26:05.420Z,44.03
2023-02-15T20:28:35.038Z,45.27
2023-02-15T20:31:06.284Z,49.00
2023-02-15T20:33:37.027Z,42.10
2023-02-15T20:36:06.347Z,53.00
2023-02-15T20:38:36.884Z,49.93
2023-02-15T20:41:23.161Z,48.37
2023-02-15T20:43:52.639Z,41.80
2023-02-15T20:46:21.787Z,40.33
2023-02-15T20:48:51.824Z,46.23
2023-02-15T20:51:23.536Z,39.23
2023-02-15T20:53:53.803Z,58.33
2023-02-15T20:56:24.334Z,43.33
2023-02-15T20:58:54.023Z,42.87
2023-02-15T21:01:23.133Z,42.83
2023-02-15T21:03:52.313Z,41.40
2023-02-15T21:06:21.914Z,40.93
2023-02-15T21:08:51.477Z,42.93
2023-02-15T21:11:24.318Z,47.63
2023-02-15T21:13:53.499Z,39.83
2023-02-15T21:16:22.516Z,40.00
2023-02-15T21:18:51.408Z,52.83
2023-02-15T21:21:24.358Z,38.97
2023-02-15T21:23:53.923Z,41.40
2023-02-15T21:26:24.409Z,42.67
2023-02-15T21:28:52.873Z,38.50
2023-02-15T21:31:23.400Z,39.53
2023-02-15T21:33:52.165Z,39.07
2023-02-15T21:36:22.994Z,44.53
2023-02-15T21:38:53.672Z,43.73
2023-02-15T21:41:42.648Z,39.20
2023-02-15T21:44:34.657Z,37.87
2023-02-15T21:47:20.419Z,39.23
2023-02-15T21:49:48.768Z,52.50
2023-02-15T21:52:20.000Z,37.50
2023-02-15T21:54:48.963Z,40.23
2023-02-15T21:57:22.151Z,40.70
2023-02-15T21:59:50.634Z,38.20
2023-02-15T22:02:28.922Z,40.47
2023-02-15T22:04:57.303Z,41.07
2023-02-15T22:07:25.579Z,41.23
2023-02-15T22:09:54.348Z,44.07
2023-02-15T22:12:24.236Z,39.97
2023-02-15T22:14:54.504Z,39.50
2023-02-15T22:17:24.967Z,37.17
2023-02-15T22:19:54.079Z,39.47
2023-02-15T22:22:22.671Z,39.23
2023-02-15T22:24:51.110Z,39.27
2023-02-15T22:27:25.549Z,42.53
2023-02-15T22:29:56.197Z,49.80
2023-02-15T22:32:26.678Z,58.50
2023-02-15T22:34:55.622Z,39.87
2023-02-15T22:37:23.790Z,48.40
2023-02-15T22:39:51.968Z,40.50
2023-02-15T22:42:25.738Z,46.77
2023-02-15T22:44:57.289Z,49.93
2023-02-15T22:47:27.596Z,38.47
2023-02-15T22:49:56.297Z,45.83
2023-02-15T22:52:25.378Z,42.60
2023-02-15T22:54:53.614Z,41.37
2023-02-15T22:57:29.061Z,38.90
2023-02-15T22:59:59.422Z,38.13
2023-02-15T23:02:27.865Z,39.33
2023-02-15T23:04:56.285Z,41.13
2023-02-15T23:07:24.758Z,38.97
2023-02-15T23:09:53.098Z,39.80
2023-02-15T23:12:26.029Z,52.17
2023-02-15T23:14:55.012Z,39.90
2023-02-15T23:17:24.638Z,48.87
2023-02-15T23:19:52.827Z,50.90
2023-02-15T23:22:21.281Z,42.97
2023-02-15T23:24:53.330Z,41.37
2023-02-15T23:27:39.455Z,40.57
2023-02-15T23:30:14.075Z,39.70
2023-02-15T23:32:44.016Z,36.53
2023-02-15T23:35:16.332Z,39.03
2023-02-15T23:37:45.108Z,45.37
2023-02-15T23:40:34.022Z,35.90
2023-02-15T23:43:02.671Z,33.20
2023-02-15T23:45:34.694Z,38.43
2023-02-15T23:48:22.434Z,44.63
2023-02-15T23:50:51.020Z,36.97
2023-02-15T23:53:19.718Z,35.97
2023-02-15T23:55:48.600Z,35.87
2023-02-15T23:58:20.183Z,37.00
